Manistee, MI

3:42 PM EDT on September 24, 2017 (GMT -0400)
Manistee County-Blacker

Weather History for KMBL - December, 2013

Change the Weather History Date:

Friday, December 6, 2013

  Actual Average Record
Temperature  
Mean Temperature 20 °F -  
Max Temperature 21 °F 37 °F 56 °F (1975)
Min Temperature 19 °F 24 °F 3 °F (1991)
Degree Days  
Heating Degree Days 45    
Moisture  
Dew Point 10 °F    
Average Humidity 68    
Maximum Humidity 80    
Minimum Humidity 58    
Precipitation  
Precipitation 0.00 in - - ()
Sea Level Pressure  
Sea Level Pressure 30.28 in    
Wind  
Wind Speed 12 mph (WNW)    
Max Wind Speed 16 mph    
Max Gust Speed 22 mph    
Visibility 10 miles    
Events      
Averages and records for this station are not official NWS values.
T = Trace of Precipitation, MM = Missing Value Source: NWS Daily Summary

Daily Weather History Graph

Daily Weather History Graph

Search for Another Location

Airport or City:

Trip Planner

Search our weather history database for the weather conditions in past years. The results will help you decide how hot, cold, wet, or windy it might be!

Date:

Astronomy

Dec. 06, 2013 Rise Set
Actual Time 8:06 AM EST 5:06 PM EST
Civil Twilight 7:33 AM EST 5:39 PM EST
Nautical Twilight 6:56 AM EST 6:15 PM EST
Astronomical Twilight 6:21 AM EST 6:50 PM EST
Moon 11:06 AM EST (12/6) 9:43 PM EST (12/6)
Length of Visible Light 10h 05m
Length of Day
8h 59m
Waxing Crescent, 19% of the Moon is Illuminated
Dec 6
Waxing Crescent
Dec 9
First Quarter
Dec 17
Full
Dec 25
Last Quarter
Jan 1
New

Hourly Weather History & Observations

Time (EST) Temp. Windchill Dew Point Humidity Pressure Visibility Wind Dir Wind Speed Gust Speed Precip Events Conditions
12:15 AM 21.2 °F 8.3 °F 12.2 °F 68% 30.16 in 10.0 mi WNW 13.8 mph - N/A   Overcast
12:35 AM 21.2 °F 8.9 °F 12.2 °F 68% 30.16 in 10.0 mi WNW 12.7 mph 19.6 mph N/A   Overcast
12:55 AM 21.2 °F 9.5 °F 12.2 °F 68% 30.18 in 10.0 mi West 11.5 mph - N/A   Overcast
1:15 AM 21.2 °F 7.8 °F 12.2 °F 68% 30.18 in 10.0 mi WNW 15.0 mph - N/A   Overcast
1:35 AM 21.2 °F 9.5 °F 14.0 °F 74% 30.19 in 10.0 mi WNW 11.5 mph - N/A   Overcast
1:55 AM 21.2 °F 9.5 °F 14.0 °F 74% 30.18 in 10.0 mi WNW 11.5 mph - N/A   Overcast
2:15 AM 19.4 °F 5.5 °F 12.2 °F 74% 30.18 in 10.0 mi WNW 15.0 mph 21.9 mph N/A   Overcast
2:35 AM 19.4 °F 5.5 °F 10.4 °F 68% 30.18 in 10.0 mi WNW 15.0 mph - N/A   Overcast
2:55 AM 19.4 °F 6.0 °F 12.2 °F 74% 30.19 in 10.0 mi WNW 13.8 mph - N/A   Overcast
3:15 AM 19.4 °F 6.0 °F 10.4 °F 68% 30.20 in 10.0 mi WNW 13.8 mph - N/A   Overcast
3:35 AM 19.4 °F 6.6 °F 10.4 °F 68% 30.19 in 10.0 mi NW 12.7 mph 17.3 mph N/A   Overcast
3:55 AM 19.4 °F 5.5 °F 14.0 °F 80% 30.20 in 10.0 mi WNW 15.0 mph 19.6 mph N/A   Overcast
4:15 AM 19.4 °F 7.9 °F 12.2 °F 74% 30.20 in 10.0 mi WNW 10.4 mph - N/A   Overcast
4:35 AM 19.4 °F 6.6 °F 12.2 °F 74% 30.21 in 10.0 mi West 12.7 mph - N/A   Overcast
4:55 AM 19.4 °F 6.0 °F 12.2 °F 74% 30.21 in 10.0 mi WNW 13.8 mph - N/A   Overcast
5:15 AM 19.4 °F 6.0 °F 12.2 °F 74% 30.22 in 10.0 mi WNW 13.8 mph - N/A   Overcast
5:35 AM 19.4 °F 8.6 °F 12.2 °F 74% 30.22 in 10.0 mi NW 9.2 mph - N/A   Overcast
5:55 AM 19.4 °F 7.2 °F 12.2 °F 74% 30.22 in 10.0 mi WNW 11.5 mph - N/A   Overcast
6:15 AM 19.4 °F 6.6 °F 10.4 °F 68% 30.22 in 10.0 mi WNW 12.7 mph 18.4 mph N/A   Overcast
6:35 AM 19.4 °F 6.0 °F 12.2 °F 74% 30.23 in 10.0 mi WNW 13.8 mph - N/A   Overcast
6:55 AM 19.4 °F 7.2 °F 12.2 °F 74% 30.25 in 10.0 mi WNW 11.5 mph 16.1 mph N/A   Overcast
7:15 AM 19.4 °F 6.0 °F 12.2 °F 74% 30.25 in 10.0 mi NW 13.8 mph 18.4 mph N/A   Overcast
7:35 AM 19.4 °F 6.6 °F 12.2 °F 74% 30.25 in 10.0 mi NW 12.7 mph 20.7 mph N/A   Overcast
7:55 AM 19.4 °F 6.6 °F 12.2 °F 74% 30.25 in 10.0 mi WNW 12.7 mph 16.1 mph N/A   Overcast
8:15 AM 19.4 °F 6.6 °F 10.4 °F 68% 30.26 in 10.0 mi WNW 12.7 mph - N/A   Overcast
8:35 AM 19.4 °F 6.6 °F 10.4 °F 68% 30.26 in 10.0 mi WNW 12.7 mph 19.6 mph N/A   Overcast
8:55 AM 19.4 °F 6.6 °F 10.4 °F 68% 30.26 in 10.0 mi WNW 12.7 mph - N/A   Overcast
9:15 AM 19.4 °F 6.0 °F 12.2 °F 74% 30.27 in 10.0 mi WNW 13.8 mph - N/A   Overcast
9:35 AM 19.4 °F 7.2 °F 10.4 °F 68% 30.28 in 10.0 mi WNW 11.5 mph - N/A   Overcast
9:55 AM 19.4 °F 6.6 °F 10.4 °F 68% 30.28 in 10.0 mi WNW 12.7 mph 18.4 mph N/A   Overcast
10:15 AM 19.4 °F 5.5 °F 10.4 °F 68% 30.28 in 10.0 mi WNW 15.0 mph - N/A   Overcast
10:35 AM 19.4 °F 7.9 °F 10.4 °F 68% 30.29 in 9.0 mi WNW 10.4 mph - N/A   Overcast
10:55 AM 19.4 °F 8.6 °F 10.4 °F 68% 30.30 in 9.0 mi NW 9.2 mph - N/A   Overcast
11:15 AM 19.4 °F 7.9 °F 12.2 °F 74% 30.32 in 10.0 mi NW 10.4 mph - N/A   Overcast
11:35 AM 19.4 °F 8.6 °F 12.2 °F 74% 30.32 in 8.0 mi WNW 9.2 mph - N/A   Overcast
11:55 AM 19.4 °F 8.6 °F 10.4 °F 68% 30.32 in 10.0 mi WNW 9.2 mph - N/A   Overcast
12:15 PM 19.4 °F 7.2 °F 10.4 °F 68% 30.31 in 10.0 mi WNW 11.5 mph - N/A   Overcast
12:35 PM 19.4 °F 7.9 °F 10.4 °F 68% 30.31 in 10.0 mi WNW 10.4 mph - N/A   Overcast
12:55 PM 19.4 °F 8.6 °F 10.4 °F 68% 30.30 in 10.0 mi NW 9.2 mph - N/A   Overcast
1:15 PM 19.4 °F 7.2 °F 10.4 °F 68% 30.30 in 10.0 mi WNW 11.5 mph - N/A   Overcast
1:35 PM 19.4 °F 7.9 °F 10.4 °F 68% 30.30 in 10.0 mi NW 10.4 mph - N/A   Overcast
1:55 PM 19.4 °F 7.9 °F 10.4 °F 68% 30.29 in 10.0 mi West 10.4 mph - N/A   Overcast
2:15 PM 19.4 °F 7.9 °F 8.6 °F 63% 30.29 in 10.0 mi WNW 10.4 mph - N/A   Overcast
2:35 PM 19.4 °F 7.9 °F 10.4 °F 68% 30.28 in 10.0 mi WNW 10.4 mph - N/A   Overcast
2:55 PM 19.4 °F 10.4 °F 12.2 °F 74% 30.28 in 10.0 mi WNW 6.9 mph - N/A   Overcast
3:15 PM 19.4 °F 8.6 °F 10.4 °F 68% 30.28 in 10.0 mi NW 9.2 mph - N/A   Overcast
3:35 PM 19.4 °F 9.5 °F 10.4 °F 68% 30.29 in 10.0 mi NW 8.1 mph - N/A   Overcast
3:55 PM 19.4 °F 10.4 °F 8.6 °F 63% 30.30 in 10.0 mi WNW 6.9 mph - N/A   Overcast
4:15 PM 19.4 °F 9.5 °F 6.8 °F 58% 30.31 in 10.0 mi WNW 8.1 mph - N/A   Overcast
4:35 PM 19.4 °F 9.5 °F 6.8 °F 58% 30.31 in 10.0 mi West 8.1 mph - N/A   Overcast
4:55 PM 19.4 °F 8.6 °F 8.6 °F 63% 30.32 in 10.0 mi West 9.2 mph - N/A   Overcast
5:15 PM 19.4 °F 10.4 °F 6.8 °F 58% 30.32 in 10.0 mi West 6.9 mph - N/A   Overcast
5:35 PM 19.4 °F 7.2 °F 8.6 °F 63% 30.30 in 10.0 mi WNW 11.5 mph - N/A   Overcast
5:55 PM 19.4 °F 8.6 °F 8.6 °F 63% 30.32 in 10.0 mi WNW 9.2 mph - N/A   Overcast
6:15 PM 19.4 °F 9.5 °F 8.6 °F 63% 30.33 in 10.0 mi WNW 8.1 mph - N/A   Overcast
6:35 PM 19.4 °F 8.6 °F 8.6 °F 63% 30.33 in 10.0 mi WNW 9.2 mph - N/A   Overcast
6:55 PM 19.4 °F 7.9 °F 8.6 °F 63% 30.33 in 10.0 mi WNW 10.4 mph - N/A   Overcast
7:15 PM 19.4 °F 6.6 °F 10.4 °F 68% 30.34 in 10.0 mi WNW 12.7 mph 17.3 mph N/A   Overcast
7:35 PM 19.4 °F 7.9 °F 8.6 °F 63% 30.33 in 10.0 mi NW 10.4 mph - N/A   Overcast
7:55 PM 19.4 °F 6.0 °F 8.6 °F 63% 30.34 in 10.0 mi WNW 13.8 mph - N/A   Overcast
8:15 PM 19.4 °F 6.0 °F 10.4 °F 68% 30.34 in 10.0 mi WNW 13.8 mph - N/A   Overcast
8:35 PM 19.4 °F 7.9 °F 8.6 °F 63% 30.35 in 10.0 mi NW 10.4 mph - N/A   Overcast
8:55 PM 19.4 °F 5.5 °F 10.4 °F 68% 30.36 in 10.0 mi WNW 15.0 mph - N/A   Overcast
9:15 PM 19.4 °F 6.0 °F 8.6 °F 63% 30.36 in 10.0 mi WNW 13.8 mph - N/A   Overcast
9:35 PM 19.4 °F 5.5 °F 8.6 °F 63% 30.36 in 10.0 mi West 15.0 mph 18.4 mph N/A   Overcast
9:55 PM 19.4 °F 6.0 °F 8.6 °F 63% 30.37 in 10.0 mi West 13.8 mph - N/A   Overcast
10:15 PM 19.4 °F 6.0 °F 10.4 °F 68% 30.37 in 10.0 mi West 13.8 mph - N/A   Overcast
10:35 PM 19.4 °F 5.0 °F 8.6 °F 63% 30.38 in 10.0 mi WNW 16.1 mph - N/A   Overcast
10:55 PM 19.4 °F 7.9 °F 8.6 °F 63% 30.38 in 10.0 mi WNW 10.4 mph - N/A   Overcast
11:15 PM 19.4 °F 7.2 °F 10.4 °F 68% 30.38 in 10.0 mi WNW 11.5 mph - N/A   Overcast
11:35 PM 19.4 °F 8.6 °F 10.4 °F 68% 30.39 in 10.0 mi NW 9.2 mph - N/A   Overcast
11:55 PM 19.4 °F 5.5 °F 8.6 °F 63% 30.40 in 10.0 mi NW 15.0 mph 18.4 mph N/A   Overcast